Time;durP1;ratioP1;P1;durP2;ratioP2;P2;SDS_P1;SDS_P2;PMS_P1;PMS_P2;Temp;Humidity;BMP_temperature;BMP_pressure;BME280_temperature;BME280_humidity;BME280_pressure;Samples;Min_cycle;Max_cycle;Signal;HPM_P1;HPM_P2
2023/07/12 00:00:25;;;;;;;;;;;;;;;;;;7387076;19;19919;-73
2023/07/12 00:02:50;;;;;;;;;;;;;;;;;;7366132;19;20277;-74
2023/07/12 00:05:16;;;;;;;;;;;;;;;;;;7365746;19;20023;-73
2023/07/12 00:07:41;;;;;;;;;;;;;;;;;;7369846;19;19966;-73
2023/07/12 00:10:17;;;;;;;;;;;;;;;;;;7368407;19;19930;-73
2023/07/12 00:12:42;;;;;;;;;;;;;;;;;;7390139;19;19919;-72
2023/07/12 00:15:10;;;;;;;;;;;;;;;;;;7367782;19;20388;-73
2023/07/12 00:17:35;;;;;;;;;;;;;;;;;;7366080;19;19938;-72
2023/07/12 00:20:00;;;;;;;;;;;;;;;;;;7365295;19;20346;-73
2023/07/12 00:22:26;;;;;;;;;;;;;;;;;;7369841;19;19943;-72
2023/07/12 00:24:51;;;;;;;;;;;;;;;;;;7368885;19;20309;-71
2023/07/12 00:27:16;;;;;;;;;;;;;;;;;;7389016;19;20263;-72
2023/07/12 00:29:41;;;;;;;;;;;;;;;;;;7367083;19;20140;-71
2023/07/12 00:32:08;;;;;;;;;;;;;;;;;;7367566;19;19914;-71
2023/07/12 00:34:33;;;;;;;;;;;;;;;;;;7367293;19;19919;-73
2023/07/12 00:36:58;;;;;;;;;;;;;;;;;;7367086;19;19918;-72
2023/07/12 00:39:23;;;;;;;;;;;;;;;;;;7389152;19;19919;-72
2023/07/12 00:42:03;;;;;;;;;;;;;;;;;;7365949;19;19919;-71
2023/07/12 00:44:52;;;;;;;;;;;;;;;;;;7367567;19;19915;-72
2023/07/12 00:47:17;;;;;;;;;;;;;;;;;;7365420;19;19930;-72
2023/07/12 00:49:46;;;;;;;;;;;;;;;;;;7365108;19;19922;-73
2023/07/12 00:52:11;;;;;;;;;;;;;;;;;;7368503;19;19946;-73
2023/07/12 00:54:53;;;;;;;;;;;;;;;;;;7387824;19;19922;-72
2023/07/12 00:57:18;;;;;;;;;;;;;;;;;;7364442;19;20004;-71
2023/07/12 00:59:44;;;;;;;;;;;;;;;;;;7363969;19;19915;-72
2023/07/12 01:02:09;;;;;;;;;;;;;;;;;;7364092;19;19992;-72
2023/07/12 01:04:40;;;;;;;;;;;;;;;;;;7362378;19;19930;-72
2023/07/12 01:07:05;;;;;;;;;;;;;;;;;;7365733;19;19912;-72
2023/07/12 01:09:31;;;;;;;;;;;;;;;;;;7387605;19;19911;-72
2023/07/12 01:11:56;;;;;;;;;;;;;;;;;;7366395;19;19915;-73
2023/07/12 01:14:21;;;;;;;;;;;;;;;;;;7369042;19;19927;-73
2023/07/12 01:17:05;;;;;;;;;;;;;;;;;;7364118;19;19947;-72
2023/07/12 01:19:31;;;;;;;;;;;;;;;;;;7365128;19;19923;-72
2023/07/12 01:21:57;;;;;;;;;;;;;;;;;;7364530;19;19922;-72
2023/07/12 01:24:23;;;;;;;;;;;;;;;;;;7388689;19;19922;-73
2023/07/12 01:26:50;;;;;;;;;;;;;;;;;;7367737;19;19915;-73
2023/07/12 01:29:15;;;;;;;;;;;;;;;;;;7368903;19;20531;-73
2023/07/12 01:31:41;;;;;;;;;;;;;;;;;;7365468;19;19919;-73
2023/07/12 01:34:07;;;;;;;;;;;;;;;;;;7367383;19;20491;-73
2023/07/12 01:36:32;;;;;;;;;;;;;;;;;;7389288;19;19925;-73
2023/07/12 01:38:58;;;;;;;;;;;;;;;;;;7367253;19;19940;-73
2023/07/12 01:41:24;;;;;;;;;;;;;;;;;;7366940;19;19962;-73
2023/07/12 01:43:49;;;;;;;;;;;;;;;;;;7367246;19;20254;-73
2023/07/12 01:46:15;;;;;;;;;;;;;;;;;;7367485;19;19921;-73
2023/07/12 01:48:40;;;;;;;;;;;;;;;;;;7384718;19;19919;-72
2023/07/12 01:51:06;;;;;;;;;;;;;;;;;;7363729;19;19948;-73
2023/07/12 01:53:33;;;;;;;;;;;;;;;;;;7364342;19;19922;-73
2023/07/12 01:55:58;;;;;;;;;;;;;;;;;;7362272;19;20437;-72
2023/07/12 01:58:24;;;;;;;;;;;;;;;;;;7363588;19;19958;-72
2023/07/12 02:00:50;;;;;;;;;;;;;;;;;;7362455;19;19949;-73
2023/07/12 02:03:15;;;;;;;;;;;;;;;;;;7386068;19;19933;-73
2023/07/12 02:05:41;;;;;;;;;;;;;;;;;;7362850;19;19942;-73
2023/07/12 02:08:07;;;;;;;;;;;;;;;;;;7364540;19;19922;-73
2023/07/12 02:10:32;;;;;;;;;;;;;;;;;;7362074;19;20358;-72
2023/07/12 02:12:57;;;;;;;;;;;;;;;;;;7363807;19;19923;-73
2023/07/12 02:15:22;;;;;;;;;;;;;;;;;;7382447;19;20321;-73
2023/07/12 02:17:48;;;;;;;;;;;;;;;;;;7359616;19;20233;-72
2023/07/12 02:20:13;;;;;;;;;;;;;;;;;;7362492;19;19934;-72
2023/07/12 02:22:43;;;;;;;;;;;;;;;;;;7364067;19;19926;-73
2023/07/12 02:25:09;;;;;;;;;;;;;;;;;;7363672;19;20943;-73
2023/07/12 02:27:34;;;;;;;;;;;;;;;;;;7385220;19;20331;-73
2023/07/12 02:30:00;;;;;;;;;;;;;;;;;;7361188;19;19915;-73
2023/07/12 02:32:27;;;;;;;;;;;;;;;;;;7360146;19;19915;-73
2023/07/12 02:34:52;;;;;;;;;;;;;;;;;;7361919;19;19945;-73
2023/07/12 02:37:17;;;;;;;;;;;;;;;;;;7361155;19;19923;-73
2023/07/12 02:39:43;;;;;;;;;;;;;;;;;;7383713;19;19966;-73
2023/07/12 02:42:09;;;;;;;;;;;;;;;;;;7362795;19;19925;-73
2023/07/12 02:44:34;;;;;;;;;;;;;;;;;;7363283;19;19919;-73
2023/07/12 02:46:59;;;;;;;;;;;;;;;;;;7364296;19;19951;-73
2023/07/12 02:49:24;;;;;;;;;;;;;;;;;;7364299;19;19943;-72
2023/07/12 02:51:50;;;;;;;;;;;;;;;;;;7360151;19;20019;-73
2023/07/12 02:54:15;;;;;;;;;;;;;;;;;;7384328;19;20542;-73
2023/07/12 02:56:40;;;;;;;;;;;;;;;;;;7360508;19;19915;-73
2023/07/12 02:59:05;;;;;;;;;;;;;;;;;;7361181;19;19926;-73
2023/07/12 03:01:31;;;;;;;;;;;;;;;;;;7358241;19;19923;-73
2023/07/12 03:03:56;;;;;;;;;;;;;;;;;;7363270;19;19915;-73
2023/07/12 03:06:21;;;;;;;;;;;;;;;;;;7384807;19;20322;-73
2023/07/12 03:08:46;;;;;;;;;;;;;;;;;;7367978;19;20329;-73
2023/07/12 03:11:15;;;;;;;;;;;;;;;;;;7368569;19;19948;-73
2023/07/12 03:13:40;;;;;;;;;;;;;;;;;;7368285;19;20378;-73
2023/07/12 03:16:06;;;;;;;;;;;;;;;;;;7368161;19;20021;-71
2023/07/12 03:18:32;;;;;;;;;;;;;;;;;;7387862;19;19922;-72
2023/07/12 03:21:01;;;;;;;;;;;;;;;;;;7365154;19;20142;-72
2023/07/12 03:23:26;;;;;;;;;;;;;;;;;;7369002;19;20605;-72
2023/07/12 03:25:51;;;;;;;;;;;;;;;;;;7369551;19;19918;-72
2023/07/12 03:28:17;;;;;;;;;;;;;;;;;;7368822;19;20406;-72
2023/07/12 03:30:42;;;;;;;;;;;;;;;;;;7388344;19;20260;-73
2023/07/12 03:33:07;;;;;;;;;;;;;;;;;;7368129;19;19925;-72
2023/07/12 03:35:32;;;;;;;;;;;;;;;;;;7367997;19;19993;-71
2023/07/12 03:37:58;;;;;;;;;;;;;;;;;;7367893;19;20305;-73
2023/07/12 03:40:23;;;;;;;;;;;;;;;;;;7368841;19;19923;-71
2023/07/12 03:42:48;;;;;;;;;;;;;;;;;;7366749;19;19930;-72
2023/07/12 03:45:14;;;;;;;;;;;;;;;;;;7388535;19;19915;-72
2023/07/12 03:47:39;;;;;;;;;;;;;;;;;;7366374;19;19933;-72
2023/07/12 03:50:04;;;;;;;;;;;;;;;;;;7366828;19;20258;-73
2023/07/12 03:52:29;;;;;;;;;;;;;;;;;;7368535;19;19914;-73
2023/07/12 03:54:55;;;;;;;;;;;;;;;;;;7368134;19;19914;-73
2023/07/12 03:57:20;;;;;;;;;;;;;;;;;;7389272;19;19936;-73
2023/07/12 03:59:45;;;;;;;;;;;;;;;;;;7365735;19;19923;-73
2023/07/12 04:02:10;;;;;;;;;;;;;;;;;;7363038;19;19918;-73
2023/07/12 04:04:36;;;;;;;;;;;;;;;;;;7364920;19;19930;-73
2023/07/12 04:07:02;;;;;;;;;;;;;;;;;;7368895;19;19910;-72
2023/07/12 04:09:27;;;;;;;;;;;;;;;;;;7394928;19;19954;-73
2023/07/12 04:11:52;;;;;;;;;;;;;;;;;;7366471;19;19914;-73
2023/07/12 04:14:18;;;;;;;;;;;;;;;;;;7367542;19;19932;-73
2023/07/12 04:16:44;;;;;;;;;;;;;;;;;;7365733;19;19922;-74
2023/07/12 04:19:09;;;;;;;;;;;;;;;;;;7364931;19;20559;-72
2023/07/12 04:21:34;;;;;;;;;;;;;;;;;;7386679;19;19919;-72
2023/07/12 04:24:00;;;;;;;;;;;;;;;;;;7369556;19;20397;-72
2023/07/12 04:26:25;;;;;;;;;;;;;;;;;;7367771;19;20330;-73
2023/07/12 04:28:51;;;;;;;;;;;;;;;;;;7366493;19;19933;-73
2023/07/12 04:31:17;;;;;;;;;;;;;;;;;;7366984;19;19915;-72
2023/07/12 04:33:43;;;;;;;;;;;;;;;;;;7389883;19;19929;-72
2023/07/12 04:36:09;;;;;;;;;;;;;;;;;;7368139;19;19923;-73
2023/07/12 04:38:35;;;;;;;;;;;;;;;;;;7367280;19;20354;-73
2023/07/12 04:41:01;;;;;;;;;;;;;;;;;;7365288;19;19907;-65
2023/07/12 04:43:26;;;;;;;;;;;;;;;;;;7365579;19;20011;-60
2023/07/12 04:45:52;;;;;;;;;;;;;;;;;;7370021;19;20030;-64
2023/07/12 04:48:17;;;;;;;;;;;;;;;;;;7385673;19;19947;-61
2023/07/12 04:50:43;;;;;;;;;;;;;;;;;;7365666;19;19971;-61
2023/07/12 04:53:08;;;;;;;;;;;;;;;;;;7366977;19;19918;-61
2023/07/12 04:55:34;;;;;;;;;;;;;;;;;;7365111;19;20316;-61
2023/07/12 04:57:59;;;;;;;;;;;;;;;;;;7364006;19;19919;-62
2023/07/12 05:00:25;;;;;;;;;;;;;;;;;;7385537;19;19923;-62
2023/07/12 05:02:51;;;;;;;;;;;;;;;;;;7366649;19;19919;-63
2023/07/12 05:05:29;;;;;;;;;;;;;;;;;;7363989;19;20537;-63
2023/07/12 05:07:54;;;;;;;;;;;;;;;;;;7368904;19;19984;-62
2023/07/12 05:10:19;;;;;;;;;;;;;;;;;;7365491;19;19926;-61
2023/07/12 05:12:44;;;;;;;;;;;;;;;;;;7385059;19;19915;-64
2023/07/12 05:15:10;;;;;;;;;;;;;;;;;;7373536;19;19945;-62
2023/07/12 05:17:36;;;;;;;;;;;;;;;;;;7365466;19;20128;-62
2023/07/12 05:20:03;;;;;;;;;;;;;;;;;;7364933;19;19926;-62
2023/07/12 05:22:28;;;;;;;;;;;;;;;;;;7367471;19;19943;-61
2023/07/12 05:24:53;;;;;;;;;;;;;;;;;;7368010;19;19915;-63
2023/07/12 05:27:18;;;;;;;;;;;;;;;;;;7390553;19;20018;-61
2023/07/12 05:29:44;;;;;;;;;;;;;;;;;;7363182;19;19926;-63
2023/07/12 05:32:09;;;;;;;;;;;;;;;;;;7367241;19;19967;-63
2023/07/12 05:34:35;;;;;;;;;;;;;;;;;;7363737;19;19923;-63
2023/07/12 05:37:00;;;;;;;;;;;;;;;;;;7364853;19;19924;-63
2023/07/12 05:39:26;;;;;;;;;;;;;;;;;;7386827;19;20357;-63
2023/07/12 05:41:51;;;;;;;;;;;;;;;;;;7363501;19;20371;-63
2023/07/12 05:44:16;;;;;;;;;;;;;;;;;;7363349;19;20298;-63
2023/07/12 05:46:41;;;;;;;;;;;;;;;;;;7363390;19;19958;-62
2023/07/12 05:49:07;;;;;;;;;;;;;;;;;;7365601;19;19941;-63
2023/07/12 05:51:32;;;;;;;;;;;;;;;;;;7386323;19;19941;-72
2023/07/12 05:53:57;;;;;;;;;;;;;;;;;;7362117;19;19915;-71
2023/07/12 05:56:22;;;;;;;;;;;;;;;;;;7364912;19;19926;-71
2023/07/12 05:58:48;;;;;;;;;;;;;;;;;;7366708;19;19915;-71
2023/07/12 06:01:13;;;;;;;;;;;;;;;;;;7365118;19;19929;-71
2023/07/12 06:03:38;;;;;;;;;;;;;;;;;;7387031;19;19935;-70
2023/07/12 06:06:07;;;;;;;;;;;;;;;;;;7360691;19;19919;-70
2023/07/12 06:08:32;;;;;;;;;;;;;;;;;;7365150;19;19948;-71
2023/07/12 06:10:58;;;;;;;;;;;;;;;;;;7364281;19;19919;-71
2023/07/12 06:13:23;;;;;;;;;;;;;;;;;;7365222;19;19919;-70
2023/07/12 06:15:48;;;;;;;;;;;;;;;;;;7365273;19;19915;-70
2023/07/12 06:18:13;;;;;;;;;;;;;;;;;;7386119;19;20352;-71
2023/07/12 06:20:39;;;;;;;;;;;;;;;;;;7363332;19;19932;-71
2023/07/12 06:23:04;;;;;;;;;;;;;;;;;;7366507;19;19942;-70
2023/07/12 06:25:29;;;;;;;;;;;;;;;;;;7366874;19;19927;-70
2023/07/12 06:27:55;;;;;;;;;;;;;;;;;;7364781;19;19921;-70
2023/07/12 06:30:20;;;;;;;;;;;;;;;;;;7383755;19;19914;-71
2023/07/12 06:32:45;;;;;;;;;;;;;;;;;;7364257;19;20352;-71
2023/07/12 06:35:11;;;;;;;;;;;;;;;;;;7367101;19;20417;-71
2023/07/12 06:37:36;;;;;;;;;;;;;;;;;;7365410;19;19919;-71
2023/07/12 06:40:01;;;;;;;;;;;;;;;;;;7363489;19;19923;-70
2023/07/12 06:42:27;;;;;;;;;;;;;;;;;;7394916;19;19915;-70
2023/07/12 06:44:52;;;;;;;;;;;;;;;;;;7371963;19;19918;-70
2023/07/12 06:47:17;;;;;;;;;;;;;;;;;;7371272;19;19915;-72
2023/07/12 06:49:43;;;;;;;;;;;;;;;;;;7372729;19;20071;-72
2023/07/12 06:52:10;;;;;;;;;;;;;;;;;;7375027;19;19915;-72
2023/07/12 06:54:35;;;;;;;;;;;;;;;;;;7398152;19;19915;-71
2023/07/12 06:57:00;;;;;;;;;;;;;;;;;;7371207;19;20345;-71
2023/07/12 06:59:26;;;;;;;;;;;;;;;;;;7371647;19;19922;-72
2023/07/12 07:01:51;;;;;;;;;;;;;;;;;;7366369;19;19958;-71
2023/07/12 07:04:16;;;;;;;;;;;;;;;;;;7370250;19;19978;-72
2023/07/12 07:06:42;;;;;;;;;;;;;;;;;;7391682;19;19919;-71
2023/07/12 07:09:07;;;;;;;;;;;;;;;;;;7372075;19;19915;-71
2023/07/12 07:11:33;;;;;;;;;;;;;;;;;;7369518;19;20408;-71
2023/07/12 07:13:58;;;;;;;;;;;;;;;;;;7372035;19;19946;-72
2023/07/12 07:16:24;;;;;;;;;;;;;;;;;;7371910;19;19934;-71
2023/07/12 07:18:50;;;;;;;;;;;;;;;;;;7369668;19;19932;-73
2023/07/12 07:21:15;;;;;;;;;;;;;;;;;;7389637;19;19922;-71
2023/07/12 07:23:40;;;;;;;;;;;;;;;;;;7371886;19;19923;-71
2023/07/12 07:26:07;;;;;;;;;;;;;;;;;;7385529;19;19944;-71
2023/07/12 07:28:32;;;;;;;;;;;;;;;;;;7370011;19;19955;-71
2023/07/12 07:30:58;;;;;;;;;;;;;;;;;;7370532;19;19915;-71
2023/07/12 07:33:23;;;;;;;;;;;;;;;;;;7392632;19;19990;-71
2023/07/12 07:35:49;;;;;;;;;;;;;;;;;;7369581;19;19918;-71
2023/07/12 07:38:14;;;;;;;;;;;;;;;;;;7370960;19;20361;-71
2023/07/12 07:40:40;;;;;;;;;;;;;;;;;;7370279;19;20402;-71
2023/07/12 07:43:06;;;;;;;;;;;;;;;;;;7373149;19;19908;-71
2023/07/12 07:45:31;;;;;;;;;;;;;;;;;;7394160;19;19944;-71
2023/07/12 07:47:56;;;;;;;;;;;;;;;;;;7369486;19;19919;-71
2023/07/12 07:50:21;;;;;;;;;;;;;;;;;;7369741;19;19911;-71
2023/07/12 07:52:47;;;;;;;;;;;;;;;;;;7369134;19;19923;-72
2023/07/12 07:55:12;;;;;;;;;;;;;;;;;;7370937;19;20617;-71
2023/07/12 07:57:37;;;;;;;;;;;;;;;;;;7391999;19;19919;-72
2023/07/12 08:00:06;;;;;;;;;;;;;;;;;;7369949;19;19914;-72
2023/07/12 08:02:31;;;;;;;;;;;;;;;;;;7370999;19;19911;-72
2023/07/12 08:04:56;;;;;;;;;;;;;;;;;;7369202;19;19931;-71
2023/07/12 08:07:23;;;;;;;;;;;;;;;;;;7369667;19;19939;-72
2023/07/12 08:09:48;;;;;;;;;;;;;;;;;;7369956;19;20413;-71
2023/07/12 08:12:13;;;;;;;;;;;;;;;;;;7392848;19;19927;-72
2023/07/12 08:14:38;;;;;;;;;;;;;;;;;;7370521;19;19938;-71
2023/07/12 08:17:04;;;;;;;;;;;;;;;;;;7368869;19;20022;-71
2023/07/12 08:19:29;;;;;;;;;;;;;;;;;;7371054;19;19930;-71
2023/07/12 08:21:54;;;;;;;;;;;;;;;;;;7367207;19;19956;-71
2023/07/12 08:24:19;;;;;;;;;;;;;;;;;;7391935;19;19915;-71
2023/07/12 08:26:45;;;;;;;;;;;;;;;;;;7369056;19;19915;-72
2023/07/12 08:29:10;;;;;;;;;;;;;;;;;;7370376;19;20354;-72
2023/07/12 08:31:35;;;;;;;;;;;;;;;;;;7370071;19;20345;-72
2023/07/12 08:34:00;;;;;;;;;;;;;;;;;;7370474;19;19918;-71
2023/07/12 08:36:26;;;;;;;;;;;;;;;;;;7391714;19;19923;-72
2023/07/12 08:38:51;;;;;;;;;;;;;;;;;;7370450;19;19914;-72
2023/07/12 08:41:18;;;;;;;;;;;;;;;;;;7368204;19;19948;-72
2023/07/12 08:43:43;;;;;;;;;;;;;;;;;;7371217;19;19919;-72
2023/07/12 08:46:17;;;;;;;;;;;;;;;;;;7370290;19;19919;-72
2023/07/12 08:48:42;;;;;;;;;;;;;;;;;;7386529;19;19925;-72
2023/07/12 08:51:26;;;;;;;;;;;;;;;;;;7364926;19;20517;-72
2023/07/12 08:53:52;;;;;;;;;;;;;;;;;;7368190;19;19965;-72
2023/07/12 08:56:19;;;;;;;;;;;;;;;;;;7367567;19;20757;-72
2023/07/12 08:58:50;;;;;;;;;;;;;;;;;;7366941;19;19929;-71
2023/07/12 09:01:25;;;;;;;;;;;;;;;;;;7360329;19;19927;-71
2023/07/12 09:03:51;;;;;;;;;;;;;;;;;;7360941;19;20017;-71
2023/07/12 09:06:16;;;;;;;;;;;;;;;;;;7386787;19;19919;-71
2023/07/12 09:08:47;;;;;;;;;;;;;;;;;;7363319;19;20330;-71
2023/07/12 09:11:14;;;;;;;;;;;;;;;;;;7363361;19;19918;-71
2023/07/12 09:13:40;;;;;;;;;;;;;;;;;;7364066;19;19920;-71
2023/07/12 09:16:23;;;;;;;;;;;;;;;;;;7365779;19;20415;-72
2023/07/12 09:18:50;;;;;;;;;;;;;;;;;;7362042;19;20325;-70
2023/07/12 09:21:19;;;;;;;;;;;;;;;;;;7384359;19;19933;-70
2023/07/12 09:23:45;;;;;;;;;;;;;;;;;;7362516;19;19922;-71
2023/07/12 09:26:16;;;;;;;;;;;;;;;;;;7367445;19;19938;-69
2023/07/12 09:28:42;;;;;;;;;;;;;;;;;;7363808;19;19923;-72
2023/07/12 09:31:20;;;;;;;;;;;;;;;;;;7363475;19;20167;-70
2023/07/12 09:33:49;;;;;;;;;;;;;;;;;;7376921;19;19915;-69
2023/07/12 09:36:15;;;;;;;;;;;;;;;;;;7383061;19;19921;-70
2023/07/12 09:38:42;;;;;;;;;;;;;;;;;;7359764;19;20516;-70
2023/07/12 09:41:15;;;;;;;;;;;;;;;;;;7360320;19;19991;-70
2023/07/12 09:43:40;;;;;;;;;;;;;;;;;;7361639;19;20374;-71
2023/07/12 09:46:08;;;;;;;;;;;;;;;;;;7363245;19;19920;-71
2023/07/12 09:48:41;;;;;;;;;;;;;;;;;;7384663;19;19919;-70
2023/07/12 09:51:32;;;;;;;;;;;;;;;;;;7363124;19;19948;-71
2023/07/12 09:54:16;;;;;;;;;;;;;;;;;;7362723;19;19914;-70
2023/07/12 09:56:55;;;;;;;;;;;;;;;;;;7364280;19;19922;-70
2023/07/12 09:59:31;;;;;;;;;;;;;;;;;;7365282;19;19918;-70
2023/07/12 10:02:01;;;;;;;;;;;;;;;;;;7361876;19;19938;-71
2023/07/12 10:04:33;;;;;;;;;;;;;;;;;;7365767;19;19919;-70
2023/07/12 10:07:01;;;;;;;;;;;;;;;;;;7362984;19;19949;-70
2023/07/12 10:09:29;;;;;;;;;;;;;;;;;;7382840;19;19914;-71
2023/07/12 10:12:10;;;;;;;;;;;;;;;;;;7360066;19;19923;-70
2023/07/12 10:14:37;;;;;;;;;;;;;;;;;;7363987;19;19927;-71
2023/07/12 10:17:02;;;;;;;;;;;;;;;;;;7368196;19;19915;-71
2023/07/12 10:19:33;;;;;;;;;;;;;;;;;;7370645;19;20112;-71
2023/07/12 10:21:59;;;;;;;;;;;;;;;;;;7366358;19;19911;-71
2023/07/12 10:24:33;;;;;;;;;;;;;;;;;;7391913;19;19935;-71
2023/07/12 10:26:59;;;;;;;;;;;;;;;;;;7366789;19;19911;-71
2023/07/12 10:29:31;;;;;;;;;;;;;;;;;;7368121;19;19923;-72
2023/07/12 10:32:00;;;;;;;;;;;;;;;;;;7367250;19;20687;-71
2023/07/12 10:34:34;;;;;;;;;;;;;;;;;;7372577;19;19931;-71
2023/07/12 10:37:08;;;;;;;;;;;;;;;;;;7374062;19;19919;-71
2023/07/12 10:39:34;;;;;;;;;;;;;;;;;;7394115;19;19926;-71
2023/07/12 10:42:05;;;;;;;;;;;;;;;;;;7368803;19;19915;-71
2023/07/12 10:44:33;;;;;;;;;;;;;;;;;;7370658;19;20416;-70
2023/07/12 10:46:59;;;;;;;;;;;;;;;;;;7372116;19;19923;-70
2023/07/12 10:49:44;;;;;;;;;;;;;;;;;;7373082;19;19944;-70
2023/07/12 10:52:10;;;;;;;;;;;;;;;;;;7373672;19;20593;-70
2023/07/12 10:54:35;;;;;;;;;;;;;;;;;;7393900;19;19922;-70
2023/07/12 10:57:20;;;;;;;;;;;;;;;;;;7371679;19;19927;-70
2023/07/12 10:59:46;;;;;;;;;;;;;;;;;;7369911;19;19927;-71
2023/07/12 11:02:21;;;;;;;;;;;;;;;;;;7366818;19;19982;-70
2023/07/12 11:04:48;;;;;;;;;;;;;;;;;;7361135;19;19919;-70
2023/07/12 11:07:14;;;;;;;;;;;;;;;;;;7365970;19;19983;-70
2023/07/12 11:09:45;;;;;;;;;;;;;;;;;;7388315;19;19930;-72
2023/07/12 11:12:15;;;;;;;;;;;;;;;;;;7369108;19;19931;-70
2023/07/12 11:14:41;;;;;;;;;;;;;;;;;;7365602;19;19915;-72
2023/07/12 11:17:06;;;;;;;;;;;;;;;;;;7365231;19;19915;-69
2023/07/12 11:19:40;;;;;;;;;;;;;;;;;;7367347;19;19915;-71
2023/07/12 11:22:17;;;;;;;;;;;;;;;;;;7366284;19;20312;-71
2023/07/12 11:24:56;;;;;;;;;;;;;;;;;;7389941;19;20284;-72
2023/07/12 11:27:25;;;;;;;;;;;;;;;;;;7363973;19;19915;-71
2023/07/12 11:29:52;;;;;;;;;;;;;;;;;;7365953;19;19926;-71
2023/07/12 11:32:31;;;;;;;;;;;;;;;;;;7368647;19;20416;-70
2023/07/12 11:35:16;;;;;;;;;;;;;;;;;;7369942;19;19923;-70
2023/07/12 11:37:44;;;;;;;;;;;;;;;;;;7368908;19;20016;-70
2023/07/12 11:40:15;;;;;;;;;;;;;;;;;;7360728;19;19938;-72
2023/07/12 11:42:40;;;;;;;;;;;;;;;;;;7392909;19;19926;-70
2023/07/12 11:45:09;;;;;;;;;;;;;;;;;;7368694;19;19926;-71
2023/07/12 11:47:34;;;;;;;;;;;;;;;;;;7368856;19;19922;-71
2023/07/12 11:50:00;;;;;;;;;;;;;;;;;;7366607;19;19929;-70
2023/07/12 11:52:27;;;;;;;;;;;;;;;;;;7371476;19;19926;-70
2023/07/12 11:54:55;;;;;;;;;;;;;;;;;;7369996;19;20251;-71
2023/07/12 11:57:20;;;;;;;;;;;;;;;;;;7390833;19;20367;-71
2023/07/12 11:59:47;;;;;;;;;;;;;;;;;;7369915;19;19923;-71
2023/07/12 12:02:15;;;;;;;;;;;;;;;;;;7368582;19;20001;-70
2023/07/12 12:04:40;;;;;;;;;;;;;;;;;;7369862;19;19926;-70
2023/07/12 12:07:16;;;;;;;;;;;;;;;;;;7368174;19;19916;-70
2023/07/12 12:09:41;;;;;;;;;;;;;;;;;;7391388;19;19916;-70
2023/07/12 12:12:07;;;;;;;;;;;;;;;;;;7368790;19;20358;-70
2023/07/12 12:14:40;;;;;;;;;;;;;;;;;;7370854;19;19922;-69
2023/07/12 12:17:06;;;;;;;;;;;;;;;;;;7367547;19;19914;-71
2023/07/12 12:19:32;;;;;;;;;;;;;;;;;;7368868;19;19981;-72
2023/07/12 12:22:13;;;;;;;;;;;;;;;;;;7364751;19;19915;-70
2023/07/12 12:24:42;;;;;;;;;;;;;;;;;;7391472;19;20330;-70
2023/07/12 12:27:18;;;;;;;;;;;;;;;;;;7366712;19;20263;-70
2023/07/12 12:29:44;;;;;;;;;;;;;;;;;;7365940;19;19926;-70
2023/07/12 12:32:15;;;;;;;;;;;;;;;;;;7366663;19;19915;-69
2023/07/12 12:34:43;;;;;;;;;;;;;;;;;;7369475;19;19918;-69
2023/07/12 12:37:09;;;;;;;;;;;;;;;;;;7370109;19;19911;-70
2023/07/12 12:39:35;;;;;;;;;;;;;;;;;;7392571;19;19923;-70
2023/07/12 12:42:15;;;;;;;;;;;;;;;;;;7365978;19;19923;-70
2023/07/12 12:44:41;;;;;;;;;;;;;;;;;;7375608;19;19911;-69
2023/07/12 12:47:14;;;;;;;;;;;;;;;;;;7365835;19;21193;-70
2023/07/12 12:49:39;;;;;;;;;;;;;;;;;;7369717;19;19929;-71
2023/07/12 12:52:23;;;;;;;;;;;;;;;;;;7369656;19;20792;-70
2023/07/12 12:54:49;;;;;;;;;;;;;;;;;;7367178;19;19914;-70
2023/07/12 12:57:15;;;;;;;;;;;;;;;;;;7388549;19;19918;-70
2023/07/12 12:59:40;;;;;;;;;;;;;;;;;;7367849;19;19923;-71
2023/07/12 13:02:16;;;;;;;;;;;;;;;;;;7366108;19;19922;-70
2023/07/12 13:04:42;;;;;;;;;;;;;;;;;;7367773;19;19915;-71
2023/07/12 13:07:16;;;;;;;;;;;;;;;;;;7370477;19;19990;-69
2023/07/12 13:09:41;;;;;;;;;;;;;;;;;;7388604;19;20299;-69
2023/07/12 13:12:14;;;;;;;;;;;;;;;;;;7371214;19;19918;-69
2023/07/12 13:14:39;;;;;;;;;;;;;;;;;;7369657;19;19927;-69
2023/07/12 13:17:09;;;;;;;;;;;;;;;;;;7368216;19;19955;-70
2023/07/12 13:19:34;;;;;;;;;;;;;;;;;;7367940;19;19908;-71
2023/07/12 13:21:59;;;;;;;;;;;;;;;;;;7366564;19;19936;-70
2023/07/12 13:24:24;;;;;;;;;;;;;;;;;;7389200;19;19928;-69
2023/07/12 13:26:49;;;;;;;;;;;;;;;;;;7367458;19;19926;-70
2023/07/12 13:29:16;;;;;;;;;;;;;;;;;;7366657;19;19922;-72
2023/07/12 13:31:41;;;;;;;;;;;;;;;;;;7367013;19;19915;-70
2023/07/12 13:34:07;;;;;;;;;;;;;;;;;;7367665;19;19940;-69
2023/07/12 13:36:33;;;;;;;;;;;;;;;;;;7390355;19;20010;-70
2023/07/12 13:39:08;;;;;;;;;;;;;;;;;;7366419;19;19942;-70
2023/07/12 13:41:33;;;;;;;;;;;;;;;;;;7367056;19;19919;-69
2023/07/12 13:43:58;;;;;;;;;;;;;;;;;;7368324;19;19936;-70
2023/07/12 13:46:24;;;;;;;;;;;;;;;;;;7371470;19;19919;-70
2023/07/12 13:48:49;;;;;;;;;;;;;;;;;;7371073;19;19949;-69
2023/07/12 13:51:19;;;;;;;;;;;;;;;;;;7391014;19;20334;-69
2023/07/12 13:53:44;;;;;;;;;;;;;;;;;;7370986;19;20393;-69
2023/07/12 13:56:09;;;;;;;;;;;;;;;;;;7366954;19;19915;-69
2023/07/12 13:58:34;;;;;;;;;;;;;;;;;;7356632;19;19928;-71
2023/07/12 14:01:00;;;;;;;;;;;;;;;;;;7362932;19;19943;-70
2023/07/12 14:03:25;;;;;;;;;;;;;;;;;;7387202;19;19955;-70
2023/07/12 14:05:51;;;;;;;;;;;;;;;;;;7365693;19;20640;-70
2023/07/12 14:08:16;;;;;;;;;;;;;;;;;;7366495;19;19922;-70
2023/07/12 14:10:41;;;;;;;;;;;;;;;;;;7366433;19;19919;-70
2023/07/12 14:13:15;;;;;;;;;;;;;;;;;;7364399;19;19919;-70
2023/07/12 14:15:40;;;;;;;;;;;;;;;;;;7388657;19;19911;-70
2023/07/12 14:18:08;;;;;;;;;;;;;;;;;;7365021;19;20489;-70
2023/07/12 14:20:33;;;;;;;;;;;;;;;;;;7364485;19;19919;-69
2023/07/12 14:22:58;;;;;;;;;;;;;;;;;;7365988;19;19928;-69
2023/07/12 14:25:24;;;;;;;;;;;;;;;;;;7366425;19;19911;-69
2023/07/12 14:27:49;;;;;;;;;;;;;;;;;;7365028;19;20710;-71
2023/07/12 14:30:14;;;;;;;;;;;;;;;;;;7380432;19;19933;-70
2023/07/12 14:32:41;;;;;;;;;;;;;;;;;;7365938;19;19930;-70
2023/07/12 14:35:10;;;;;;;;;;;;;;;;;;7365522;19;19935;-70
2023/07/12 14:37:36;;;;;;;;;;;;;;;;;;7363734;19;20743;-70
2023/07/12 14:40:03;;;;;;;;;;;;;;;;;;7365517;19;19934;-71
2023/07/12 14:42:30;;;;;;;;;;;;;;;;;;7387394;19;19926;-71
2023/07/12 14:44:56;;;;;;;;;;;;;;;;;;7367348;19;19995;-71
2023/07/12 14:47:21;;;;;;;;;;;;;;;;;;7364415;19;19947;-71
2023/07/12 14:49:47;;;;;;;;;;;;;;;;;;7364650;19;20361;-71
2023/07/12 14:52:24;;;;;;;;;;;;;;;;;;7366205;19;19925;-70
2023/07/12 14:54:50;;;;;;;;;;;;;;;;;;7364753;19;19926;-70
2023/07/12 14:57:16;;;;;;;;;;;;;;;;;;7388716;19;19930;-69
2023/07/12 14:59:42;;;;;;;;;;;;;;;;;;7365516;19;19926;-70
2023/07/12 15:02:19;;;;;;;;;;;;;;;;;;7369008;19;19931;-71
2023/07/12 15:04:44;;;;;;;;;;;;;;;;;;7373660;19;20266;-70
2023/07/12 15:07:30;;;;;;;;;;;;;;;;;;7372937;19;19986;-70
2023/07/12 15:09:56;;;;;;;;;;;;;;;;;;7370520;19;19930;-70
2023/07/12 15:12:30;;;;;;;;;;;;;;;;;;7394561;19;19927;-70
2023/07/12 15:14:56;;;;;;;;;;;;;;;;;;7373002;19;19986;-69
2023/07/12 15:17:23;;;;;;;;;;;;;;;;;;7371564;19;19932;-71
2023/07/12 15:19:48;;;;;;;;;;;;;;;;;;7371486;19;20438;-70
2023/07/12 15:22:13;;;;;;;;;;;;;;;;;;7367933;19;19927;-70
2023/07/12 15:24:39;;;;;;;;;;;;;;;;;;7392971;19;19915;-64
2023/07/12 15:27:09;;;;;;;;;;;;;;;;;;7366404;19;20358;-65
2023/07/12 15:29:35;;;;;;;;;;;;;;;;;;7370835;19;19923;-62
2023/07/12 15:32:01;;;;;;;;;;;;;;;;;;7370381;19;19923;-60
2023/07/12 15:34:27;;;;;;;;;;;;;;;;;;7366190;19;20396;-60
2023/07/12 15:36:52;;;;;;;;;;;;;;;;;;7370913;19;19915;-58
2023/07/12 15:39:18;;;;;;;;;;;;;;;;;;7393028;19;19919;-56
2023/07/12 15:41:47;;;;;;;;;;;;;;;;;;7365719;19;19945;-58
2023/07/12 15:44:12;;;;;;;;;;;;;;;;;;7370167;19;19915;-56
2023/07/12 15:46:37;;;;;;;;;;;;;;;;;;7368455;19;19919;-56
2023/07/12 15:49:04;;;;;;;;;;;;;;;;;;7371411;19;20350;-57
2023/07/12 15:51:36;;;;;;;;;;;;;;;;;;7392668;19;19915;-55
2023/07/12 15:54:08;;;;;;;;;;;;;;;;;;7372196;19;19982;-58
2023/07/12 15:56:35;;;;;;;;;;;;;;;;;;7371541;19;19983;-59
2023/07/12 15:59:00;;;;;;;;;;;;;;;;;;7370269;19;19923;-56
2023/07/12 16:01:26;;;;;;;;;;;;;;;;;;7369130;19;19979;-57
2023/07/12 16:03:52;;;;;;;;;;;;;;;;;;7371367;19;19918;-57
2023/07/12 16:06:20;;;;;;;;;;;;;;;;;;7392401;19;19915;-57
2023/07/12 16:08:46;;;;;;;;;;;;;;;;;;7369534;19;19926;-60
2023/07/12 16:11:16;;;;;;;;;;;;;;;;;;7375141;19;19922;-58
2023/07/12 16:13:42;;;;;;;;;;;;;;;;;;7369636;19;19919;-59
2023/07/12 16:16:12;;;;;;;;;;;;;;;;;;7370229;19;19936;-58
2023/07/12 16:18:37;;;;;;;;;;;;;;;;;;7390827;19;19919;-61
2023/07/12 16:21:07;;;;;;;;;;;;;;;;;;7367586;19;20242;-60
2023/07/12 16:23:36;;;;;;;;;;;;;;;;;;7358767;19;19919;-60
2023/07/12 16:26:03;;;;;;;;;;;;;;;;;;7366398;19;20549;-59
2023/07/12 16:28:29;;;;;;;;;;;;;;;;;;7365998;19;19923;-64
2023/07/12 16:30:54;;;;;;;;;;;;;;;;;;7365435;19;20323;-60
2023/07/12 16:33:27;;;;;;;;;;;;;;;;;;7388385;19;19915;-60
2023/07/12 16:35:53;;;;;;;;;;;;;;;;;;7365406;19;19922;-59
2023/07/12 16:38:20;;;;;;;;;;;;;;;;;;7363638;19;19930;-60
2023/07/12 16:40:50;;;;;;;;;;;;;;;;;;7365653;19;19926;-60
2023/07/12 16:43:16;;;;;;;;;;;;;;;;;;7366580;19;19919;-59
2023/07/12 16:45:41;;;;;;;;;;;;;;;;;;7390292;19;20597;-58